Time;durP1;ratioP1;P1;durP2;ratioP2;P2;SDS_P1;SDS_P2;PMS_P1;PMS_P2;Temp;Humidity;BMP_temperature;BMP_pressure;BME280_temperature;BME280_humidity;BME280_pressure;Samples;Min_cycle;Max_cycle;Signal;HPM_P1;HPM_P2
2024/01/12 00:00:21;;;;;;;44.63;26.55;;;;;;;0.22;100.00;103253.28;5061791;28;20051;-78
2024/01/12 00:02:47;;;;;;;42.63;25.65;;;;;;;0.13;100.00;103244.69;5064639;28;20120;-75
2024/01/12 00:05:12;;;;;;;44.90;27.58;;;;;;;0.10;100.00;103257.44;5061530;28;20083;-77
2024/01/12 00:07:38;;;;;;;44.42;27.80;;;;;;;0.11;100.00;103249.75;5063320;28;20100;-75
2024/01/12 00:10:04;;;;;;;44.92;27.38;;;;;;;0.10;100.00;103260.03;5062716;28;20024;-75
2024/01/12 00:12:29;;;;;;;44.13;27.27;;;;;;;0.09;100.00;103253.94;5062265;28;20025;-82
2024/01/12 00:14:55;;;;;;;45.05;28.55;;;;;;;0.10;100.00;103254.81;5045785;28;20027;-83
2024/01/12 00:17:20;;;;;;;43.92;27.92;;;;;;;0.07;100.00;103258.06;5061124;28;20043;-83
2024/01/12 00:19:46;;;;;;;46.13;28.23;;;;;;;0.17;100.00;103255.50;5057158;28;20258;-83
2024/01/12 00:22:11;;;;;;;45.25;27.63;;;;;;;0.10;100.00;103258.38;5063917;28;20032;-83
2024/01/12 00:24:37;;;;;;;45.17;28.73;;;;;;;0.16;100.00;103247.53;5062223;28;20369;-83
2024/01/12 00:27:02;;;;;;;43.78;27.88;;;;;;;0.19;100.00;103244.28;5062841;28;20037;-82
2024/01/12 00:29:27;;;;;;;44.58;27.40;;;;;;;0.24;100.00;103249.09;5063199;28;20376;-83
2024/01/12 00:31:54;;;;;;;44.67;27.42;;;;;;;0.26;100.00;103255.38;5061037;28;20126;-77
2024/01/12 00:34:19;;;;;;;44.55;27.67;;;;;;;0.30;100.00;103254.81;5064389;28;20033;-76
2024/01/12 00:36:46;;;;;;;45.90;27.85;;;;;;;0.24;100.00;103251.72;5060818;28;20034;-75
2024/01/12 00:39:12;;;;;;;44.30;27.02;;;;;;;0.16;100.00;103252.75;5067336;28;20049;-74
2024/01/12 00:41:37;;;;;;;44.30;27.52;;;;;;;0.16;100.00;103252.75;5058814;28;20039;-76
2024/01/12 00:44:04;;;;;;;44.45;27.67;;;;;;;0.11;100.00;103261.88;5066612;28;20051;-77
2024/01/12 00:46:31;;;;;;;46.42;28.33;;;;;;;0.12;100.00;103250.69;5066204;28;20028;-75
2024/01/12 00:48:56;;;;;;;43.70;26.98;;;;;;;0.12;100.00;103258.50;5067711;28;20040;-76
2024/01/12 00:51:22;;;;;;;41.70;26.67;;;;;;;0.15;100.00;103263.94;5064684;28;20033;-75
2024/01/12 00:53:47;;;;;;;44.13;27.95;;;;;;;0.10;100.00;103263.56;5068139;28;20040;-76
2024/01/12 00:56:12;;;;;;;43.90;27.60;;;;;;;0.11;100.00;103261.88;5058342;28;20151;-75
2024/01/12 00:58:38;;;;;;;44.47;27.50;;;;;;;0.12;100.00;103261.09;5065731;28;20475;-74
2024/01/12 01:01:03;;;;;;;44.42;27.50;;;;;;;0.10;100.00;103254.81;5066260;28;20380;-74
2024/01/12 01:03:29;;;;;;;44.00;27.50;;;;;;;0.14;100.00;103267.31;5066652;28;20032;-75
2024/01/12 01:05:55;;;;;;;41.95;27.08;;;;;;;0.11;100.00;103264.47;5064665;28;20124;-82
2024/01/12 01:08:20;;;;;;;44.25;27.33;;;;;;;0.11;100.00;103265.38;5068010;28;20037;-82
2024/01/12 01:10:46;;;;;;;43.92;27.38;;;;;;;0.11;100.00;103264.47;5050575;28;20449;-83
2024/01/12 01:13:13;;;;;;;43.83;26.35;;;;;;;0.10;100.00;103255.75;5046506;28;20129;-83
2024/01/12 01:15:38;;;;;;;44.85;27.48;;;;;;;0.08;100.00;103259.00;5060285;28;20029;-75
2024/01/12 01:18:04;;;;;;;44.75;27.77;;;;;;;0.17;100.00;103254.56;5048566;28;20071;-75
2024/01/12 01:20:29;;;;;;;45.35;27.33;;;;;;;0.23;100.00;103259.38;5060094;28;20502;-74
2024/01/12 01:22:54;;;;;;;43.63;27.15;;;;;;;0.23;100.00;103264.59;5068226;28;20525;-75
2024/01/12 01:25:20;;;;;;;42.92;26.63;;;;;;;0.20;100.00;103275.63;5063801;28;20152;-74
2024/01/12 01:27:45;;;;;;;44.75;27.25;;;;;;;0.14;100.00;103273.44;5067234;28;20115;-74
2024/01/12 01:30:11;;;;;;;43.63;26.17;;;;;;;0.14;100.00;103282.94;5065001;28;20032;-74
2024/01/12 01:32:36;;;;;;;42.80;26.30;;;;;;;0.11;100.00;103285.28;5065603;28;20061;-74
2024/01/12 01:35:02;;;;;;;46.08;27.42;;;;;;;0.12;100.00;103282.81;5065869;28;20039;-74
2024/01/12 01:37:28;;;;;;;42.70;26.92;;;;;;;0.10;100.00;103289.56;5064318;28;20111;-74
2024/01/12 01:39:53;;;;;;;42.92;26.63;;;;;;;0.11;100.00;103298.28;5066648;28;20043;-75
2024/01/12 01:42:18;;;;;;;43.95;27.90;;;;;;;0.07;100.00;103306.59;5063869;28;20530;-75
2024/01/12 01:44:44;;;;;;;42.60;26.60;;;;;;;0.11;100.00;103299.19;5066494;28;20120;-74
2024/01/12 01:47:10;;;;;;;43.80;26.70;;;;;;;0.19;100.00;103309.34;5064395;28;20032;-74
2024/01/12 01:49:36;;;;;;;43.15;26.95;;;;;;;0.08;100.00;103306.72;5065385;28;20043;-75
2024/01/12 01:52:03;;;;;;;43.50;27.65;;;;;;;0.16;100.00;103303.09;5065629;28;20115;-75
2024/01/12 01:54:28;;;;;;;44.08;27.02;;;;;;;0.17;100.00;103304.00;5064162;28;20464;-83
2024/01/12 01:56:55;;;;;;;43.13;26.73;;;;;;;0.10;100.00;103293.84;5066614;28;20111;-83
2024/01/12 01:59:20;;;;;;;43.28;26.75;;;;;;;0.19;100.00;103297.25;5063289;28;20033;-77
2024/01/12 02:01:46;;;;;;;44.90;27.65;;;;;;;0.22;100.00;103293.97;5066580;28;20119;-75
2024/01/12 02:04:11;;;;;;;43.65;27.17;;;;;;;0.22;100.00;103299.19;5057473;28;20422;-76
2024/01/12 02:06:37;;;;;;;43.75;27.55;;;;;;;0.10;100.00;103294.78;5057066;28;20037;-75
2024/01/12 02:09:04;;;;;;;44.65;27.48;;;;;;;0.11;100.00;103280.97;5065349;28;20081;-74
2024/01/12 02:11:29;;;;;;;44.00;27.55;;;;;;;0.13;100.00;103287.25;5064258;28;20083;-75
2024/01/12 02:13:55;;;;;;;42.55;26.95;;;;;;;0.13;100.00;103281.09;5066102;28;20028;-75
2024/01/12 02:16:21;;;;;;;42.97;26.30;;;;;;;0.07;100.00;103270.19;5063092;28;20040;-76
2024/01/12 02:18:46;;;;;;;44.33;27.42;;;;;;;0.12;100.00;103272.41;5066725;28;20033;-75
2024/01/12 02:21:12;;;;;;;42.97;26.67;;;;;;;0.12;100.00;103266.28;5063525;28;20027;-81
2024/01/12 02:23:37;;;;;;;44.42;27.73;;;;;;;0.17;100.00;103271.13;5065427;28;20041;-82
2024/01/12 02:26:03;;;;;;;42.03;26.00;;;;;;;0.12;100.00;103271.50;5064812;28;20028;-83
2024/01/12 02:28:29;;;;;;;43.13;27.10;;;;;;;0.10;100.00;103273.97;5063532;28;20121;-80
2024/01/12 02:30:54;;;;;;;42.65;26.10;;;;;;;0.01;100.00;103273.16;5066203;28;20037;-83
2024/01/12 02:33:20;;;;;;;41.85;26.70;;;;;;;0.03;100.00;103283.69;5049348;28;20115;-82
2024/01/12 02:35:45;;;;;;;42.83;26.45;;;;;;;0.06;100.00;103282.28;5044821;28;20029;-83
2024/01/12 02:38:10;;;;;;;43.75;26.52;;;;;;;0.08;100.00;103279.81;5065058;28;20475;-82
2024/01/12 02:40:36;;;;;;;44.00;27.20;;;;;;;-0.01;100.00;103279.94;5064100;28;20111;-82
2024/01/12 02:43:03;;;;;;;42.60;26.40;;;;;;;0.03;100.00;103275.88;5063718;28;20025;-76
2024/01/12 02:45:28;;;;;;;41.88;27.15;;;;;;;-0.01;100.00;103279.94;5065178;28;20028;-77
2024/01/12 02:47:53;;;;;;;43.47;26.67;;;;;;;0.02;100.00;103282.78;5062530;28;20133;-76
2024/01/12 02:50:19;;;;;;;43.00;27.33;;;;;;;-0.02;100.00;103272.91;5065813;28;20025;-74
2024/01/12 02:52:44;;;;;;;43.63;26.98;;;;;;;-0.06;100.00;103276.94;5056248;28;20024;-74
2024/01/12 02:55:09;;;;;;;43.08;27.15;;;;;;;0.03;100.00;103268.09;5063405;28;20028;-75
2024/01/12 02:57:35;;;;;;;44.63;27.63;;;;;;;0.04;100.00;103260.41;5046747;28;20480;-74
2024/01/12 03:00:00;;;;;;;43.15;26.88;;;;;;;0.04;100.00;103254.31;5043781;28;20487;-75
2024/01/12 03:02:26;;;;;;;45.38;27.77;;;;;;;0.05;100.00;103258.75;5044220;28;20408;-75
2024/01/12 03:04:51;;;;;;;42.53;27.38;;;;;;;0.02;100.00;103253.28;5058104;28;20064;-74
2024/01/12 03:07:17;;;;;;;44.10;27.42;;;;;;;0.06;100.00;103250.13;5062219;28;20039;-74
2024/01/12 03:09:42;;;;;;;42.90;26.20;;;;;;;0.11;100.00;103254.97;5064620;28;20733;-75
2024/01/12 03:12:08;;;;;;;44.42;27.45;;;;;;;0.10;100.00;103257.44;5063351;28;20123;-74
2024/01/12 03:14:33;;;;;;;43.65;27.02;;;;;;;0.08;100.00;103248.59;5052004;28;20041;-75
2024/01/12 03:16:58;;;;;;;45.03;27.73;;;;;;;0.12;100.00;103255.88;5055503;28;20028;-77
2024/01/12 03:19:24;;;;;;;42.97;26.40;;;;;;;0.10;100.00;103258.38;5065358;28;20028;-81
2024/01/12 03:21:49;;;;;;;43.65;26.67;;;;;;;0.09;100.00;103255.63;5061682;28;20032;-80
2024/01/12 03:24:15;;;;;;;42.15;26.73;;;;;;;0.05;100.00;103250.94;5064637;28;20460;-80
2024/01/12 03:26:41;;;;;;;42.38;26.23;;;;;;;0.07;100.00;103252.88;5063126;28;20384;-75
2024/01/12 03:29:06;;;;;;;44.53;27.58;;;;;;;0.02;100.00;103248.06;5063268;28;20116;-74
2024/01/12 03:31:32;;;;;;;43.88;27.80;;;;;;;-0.07;100.00;103249.09;5045862;28;20025;-74
2024/01/12 03:33:57;;;;;;;44.92;27.55;;;;;;;-0.03;100.00;103240.78;5062086;28;20037;-74
2024/01/12 03:36:23;;;;;;;44.80;27.25;;;;;;;-0.04;100.00;103253.66;5030519;28;20054;-74
2024/01/12 03:38:49;;;;;;;43.58;27.88;;;;;;;0.01;100.00;103254.94;5061306;28;20125;-74
2024/01/12 03:41:15;;;;;;;43.00;26.80;;;;;;;-0.01;100.00;103243.53;5064186;28;20027;-74
2024/01/12 03:43:40;;;;;;;44.05;27.90;;;;;;;0.03;100.00;103257.69;5062358;28;20025;-75
2024/01/12 03:46:06;;;;;;;43.90;27.00;;;;;;;0.04;100.00;103247.41;5063576;28;20052;-79
2024/01/12 03:48:32;;;;;;;43.75;27.63;;;;;;;0.05;100.00;103254.44;5063909;28;20032;-76
2024/01/12 03:50:57;;;;;;;44.75;27.48;;;;;;;0.05;100.00;103243.13;5062103;28;20032;-82
2024/01/12 03:53:22;;;;;;;44.15;27.05;;;;;;;0.02;100.00;103237.69;5065265;28;20502;-76
2024/01/12 03:55:48;;;;;;;44.67;27.38;;;;;;;0.06;100.00;103247.53;5051946;28;20064;-76
2024/01/12 03:58:14;;;;;;;43.30;26.02;;;;;;;0.07;100.00;103236.34;5065271;28;20039;-77
2024/01/12 04:00:39;;;;;;;43.33;26.60;;;;;;;0.07;100.00;103241.56;5063497;28;20021;-78
2024/01/12 04:03:05;;;;;;;41.78;26.10;;;;;;;0.05;100.00;103228.44;5062921;28;20365;-80
2024/01/12 04:05:30;;;;;;;43.58;26.85;;;;;;;0.04;100.00;103225.69;5061966;28;20086;-79
2024/01/12 04:07:55;;;;;;;44.80;27.00;;;;;;;0.05;100.00;103227.53;5064288;28;20024;-80
2024/01/12 04:10:21;;;;;;;44.47;27.42;;;;;;;0.00;100.00;103227.16;5060918;28;20457;-75
2024/01/12 04:12:46;;;;;;;42.42;26.45;;;;;;;0.04;100.00;103233.50;5062944;28;20039;-74
2024/01/12 04:15:11;;;;;;;42.83;26.08;;;;;;;-0.04;100.00;103223.34;5061877;28;20024;-75
2024/01/12 04:17:37;;;;;;;42.53;26.67;;;;;;;0.01;100.00;103228.03;5062619;28;20036;-74
2024/01/12 04:20:03;;;;;;;43.22;26.20;;;;;;;-0.04;100.00;103236.34;5063232;28;20029;-75
2024/01/12 04:22:29;;;;;;;42.45;25.98;;;;;;;-0.02;100.00;103231.28;5061461;28;20029;-75
2024/01/12 04:24:54;;;;;;;42.55;26.08;;;;;;;-0.05;100.00;103236.22;5046297;28;20047;-75
2024/01/12 04:27:20;;;;;;;41.63;26.08;;;;;;;-0.07;100.00;103230.91;5061031;28;20052;-75
2024/01/12 04:29:45;;;;;;;41.70;26.08;;;;;;;-0.06;100.00;103243.13;5063712;28;20494;-75
2024/01/12 04:32:10;;;;;;;42.35;26.20;;;;;;;-0.11;100.00;103236.59;5044067;28;20486;-78
2024/01/12 04:34:36;;;;;;;44.67;26.60;;;;;;;-0.07;100.00;103241.28;5062528;28;20068;-78
2024/01/12 04:37:02;;;;;;;43.35;26.40;;;;;;;-0.08;100.00;103247.28;5062922;28;20025;-78
2024/01/12 04:39:28;;;;;;;46.22;27.58;;;;;;;-0.05;100.00;103242.31;5044024;28;20037;-77
2024/01/12 04:41:53;;;;;;;43.80;27.13;;;;;;;0.01;100.00;103247.16;5056710;28;20108;-79
2024/01/12 04:44:18;;;;;;;43.42;27.13;;;;;;;-0.03;100.00;103247.66;5060661;28;20467;-76
2024/01/12 04:46:44;;;;;;;42.70;26.83;;;;;;;0.00;100.00;103240.16;5063450;28;20178;-83
2024/01/12 04:49:09;;;;;;;44.70;27.65;;;;;;;0.04;100.00;103244.81;5062356;28;20036;-83
2024/01/12 04:51:35;;;;;;;42.95;26.02;;;;;;;0.08;100.00;103240.78;5062230;28;20036;-83
2024/01/12 04:54:00;;;;;;;42.78;26.13;;;;;;;0.09;100.00;103245.22;5063038;28;20043;-76
2024/01/12 04:56:25;;;;;;;43.70;27.48;;;;;;;0.06;100.00;103240.66;5061256;28;20542;-75
2024/01/12 04:58:51;;;;;;;42.97;26.55;;;;;;;-0.03;100.00;103243.38;5063885;28;20456;-75
2024/01/12 05:01:16;;;;;;;42.35;26.10;;;;;;;0.02;100.00;103240.28;5043068;28;20164;-76
2024/01/12 05:03:42;;;;;;;42.20;26.33;;;;;;;-0.02;100.00;103236.47;5062906;28;20029;-77
2024/01/12 05:06:09;;;;;;;42.42;26.40;;;;;;;0.03;100.00;103239.47;5061921;28;20063;-79
2024/01/12 05:08:36;;;;;;;44.55;27.15;;;;;;;0.05;100.00;103238.84;5062140;28;20025;-78
2024/01/12 05:11:02;;;;;;;44.25;26.90;;;;;;;-0.04;100.00;103238.97;5062767;28;20086;-78
2024/01/12 05:13:28;;;;;;;43.72;26.00;;;;;;;-0.01;100.00;103228.81;5048423;28;20067;-79
2024/01/12 05:15:53;;;;;;;44.13;27.60;;;;;;;0.01;100.00;103222.84;5063993;28;20033;-83
2024/01/12 05:18:18;;;;;;;42.03;26.05;;;;;;;0.04;100.00;103220.50;5060436;28;20035;-82
2024/01/12 05:20:44;;;;;;;42.53;26.30;;;;;;;0.09;100.00;103214.91;5061819;28;20024;-74
2024/01/12 05:23:09;;;;;;;42.92;26.55;;;;;;;0.06;100.00;103214.66;5062450;28;20120;-75
2024/01/12 05:25:35;;;;;;;43.22;26.25;;;;;;;0.03;100.00;103222.19;5065483;28;20387;-82
2024/01/12 05:28:00;;;;;;;42.55;26.80;;;;;;;0.02;100.00;103229.88;5066492;28;20059;-80
2024/01/12 05:30:25;;;;;;;42.72;26.38;;;;;;;0.01;100.00;103220.25;5064775;28;20029;-80
2024/01/12 05:32:51;;;;;;;42.30;26.35;;;;;;;0.06;100.00;103213.72;5067105;28;20560;-83
2024/01/12 05:35:16;;;;;;;42.88;26.73;;;;;;;0.12;100.00;103216.88;5064505;28;20044;-82
2024/01/12 05:37:42;;;;;;;42.25;26.17;;;;;;;0.15;100.00;103214.53;5055436;28;20496;-75
2024/01/12 05:40:07;;;;;;;44.45;26.73;;;;;;;0.11;100.00;103217.63;5065126;28;20036;-75
2024/01/12 05:42:33;;;;;;;41.67;25.63;;;;;;;0.14;100.00;103217.91;5047949;28;20033;-80
2024/01/12 05:44:59;;;;;;;43.25;26.17;;;;;;;0.15;100.00;103217.13;5059331;28;20430;-77
2024/01/12 05:47:24;;;;;;;42.17;26.13;;;;;;;0.13;100.00;103227.41;5050962;28;20078;-77
2024/01/12 05:49:49;;;;;;;41.17;25.23;;;;;;;0.13;100.00;103226.47;5068117;28;20370;-77
2024/01/12 05:52:15;;;;;;;42.55;25.65;;;;;;;0.12;100.00;103230.78;5056480;28;20027;-75
2024/01/12 05:54:40;;;;;;;43.10;25.95;;;;;;;0.15;100.00;103230.13;5064893;28;20135;-75
2024/01/12 05:57:06;;;;;;;42.55;25.88;;;;;;;0.10;100.00;103234.94;5065351;28;20029;-74
2024/01/12 05:59:32;;;;;;;43.05;26.00;;;;;;;0.09;100.00;103230.53;5066016;28;20033;-75
2024/01/12 06:01:58;;;;;;;41.40;26.23;;;;;;;0.07;100.00;103231.16;5063955;28;20500;-74
2024/01/12 06:04:24;;;;;;;41.83;26.08;;;;;;;0.12;100.00;103241.19;5067222;28;20060;-75
2024/01/12 06:06:49;;;;;;;45.67;29.33;;;;;;;0.13;100.00;103239.47;5063653;28;20028;-76
2024/01/12 06:09:15;;;;;;;41.25;26.20;;;;;;;0.10;100.00;103241.81;5065913;28;20403;-79
2024/01/12 06:11:43;;;;;;;41.00;25.98;;;;;;;0.07;100.00;103242.47;5064520;28;20501;-79
2024/01/12 06:14:09;;;;;;;43.28;27.40;;;;;;;0.12;100.00;103241.19;5046921;28;20039;-76
2024/01/12 06:16:35;;;;;;;41.63;25.05;;;;;;;0.12;100.00;103235.97;5064986;28;20029;-79
2024/01/12 06:19:01;;;;;;;40.67;24.50;;;;;;;0.17;100.00;103234.69;5063761;28;20031;-80
2024/01/12 06:21:26;;;;;;;44.60;25.80;;;;;;;0.18;100.00;103240.78;5048327;28;20131;-75
2024/01/12 06:23:51;;;;;;;41.50;25.55;;;;;;;0.15;100.00;103240.53;5062871;28;20582;-74
2024/01/12 06:26:17;;;;;;;42.10;25.23;;;;;;;0.13;100.00;103247.28;5066224;28;20124;-75
2024/01/12 06:28:42;;;;;;;40.17;24.88;;;;;;;0.13;100.00;103247.28;5063724;28;20100;-75
2024/01/12 06:31:07;;;;;;;39.20;24.27;;;;;;;0.14;100.00;103251.72;5064529;28;20089;-76
2024/01/12 06:33:34;;;;;;;41.67;25.20;;;;;;;0.19;100.00;103245.22;5064940;28;20043;-76
2024/01/12 06:36:00;;;;;;;40.60;24.67;;;;;;;0.14;100.00;103257.81;5062281;28;20021;-75
2024/01/12 06:38:26;;;;;;;41.97;25.40;;;;;;;0.13;100.00;103250.81;5065956;28;20522;-75
2024/01/12 06:40:51;;;;;;;38.38;22.42;;;;;;;0.12;100.00;103256.78;5062484;28;20150;-74
2024/01/12 06:43:17;;;;;;;38.92;22.83;;;;;;;0.11;100.00;103259.25;5065524;28;20083;-75
2024/01/12 06:45:43;;;;;;;39.90;23.90;;;;;;;0.16;100.00;103255.34;5063939;28;20054;-77
2024/01/12 06:48:09;;;;;;;39.05;23.35;;;;;;;0.22;100.00;103257.56;5064366;28;20112;-80
2024/01/12 06:50:35;;;;;;;42.45;24.73;;;;;;;0.21;100.00;103264.47;5064678;28;20032;-84
2024/01/12 06:53:01;;;;;;;40.17;25.05;;;;;;;0.24;100.00;103264.72;5063196;28;20074;-80
2024/01/12 06:55:27;;;;;;;39.70;24.30;;;;;;;0.22;100.00;103257.56;5065604;28;20029;-83
2024/01/12 06:57:52;;;;;;;39.97;23.33;;;;;;;0.26;100.00;103263.19;5062394;28;20060;-84
2024/01/12 07:00:19;;;;;;;41.25;23.88;;;;;;;0.29;100.00;103266.03;5048920;28;20094;-82
2024/01/12 07:02:45;;;;;;;40.33;23.48;;;;;;;0.28;100.00;103263.31;5058117;28;20032;-83
2024/01/12 07:05:10;;;;;;;39.17;22.73;;;;;;;0.25;100.00;103263.03;5064231;28;20036;-84
2024/01/12 07:07:35;;;;;;;38.47;22.20;;;;;;;0.27;100.00;103258.88;5064446;28;20108;-77
2024/01/12 07:10:01;;;;;;;39.08;22.75;;;;;;;0.29;100.00;103258.22;5045826;28;20062;-80
2024/01/12 07:12:26;;;;;;;38.30;22.23;;;;;;;0.33;100.00;103262.00;5058355;28;20163;-77
2024/01/12 07:14:52;;;;;;;38.10;21.98;;;;;;;0.28;100.00;103266.81;5062235;28;20472;-79
2024/01/12 07:17:17;;;;;;;38.25;21.48;;;;;;;0.33;100.00;103267.19;5064904;28;20361;-76
2024/01/12 07:19:44;;;;;;;37.40;21.15;;;;;;;0.37;100.00;103257.97;5063343;28;20112;-76
2024/01/12 07:22:09;;;;;;;38.72;21.42;;;;;;;0.38;100.00;103238.94;5046703;28;20104;-76
2024/01/12 07:24:34;;;;;;;38.60;22.20;;;;;;;0.37;100.00;103240.66;5057814;28;20025;-78
2024/01/12 07:27:00;;;;;;;35.45;21.02;;;;;;;0.39;100.00;103239.06;5062639;28;20445;-78
2024/01/12 07:29:25;;;;;;;37.28;20.80;;;;;;;0.42;100.00;103241.03;5065474;28;20487;-78
2024/01/12 07:31:50;;;;;;;35.65;20.20;;;;;;;0.38;100.00;103232.06;5061712;28;20028;-78
2024/01/12 07:34:17;;;;;;;36.15;20.38;;;;;;;0.33;100.00;103236.88;5064418;28;20121;-77
2024/01/12 07:36:43;;;;;;;39.28;20.58;;;;;;;0.36;100.00;103235.31;5062636;28;20032;-81
2024/01/12 07:39:08;;;;;;;36.40;20.67;;;;;;;0.30;100.00;103236.59;5062807;28;20052;-83
2024/01/12 07:41:33;;;;;;;38.78;21.65;;;;;;;0.33;100.00;103247.28;5046012;28;20086;-84
2024/01/12 07:43:59;;;;;;;38.80;20.98;;;;;;;0.39;100.00;103238.19;5061811;28;20380;-83
2024/01/12 07:46:25;;;;;;;35.78;20.58;;;;;;;0.39;100.00;103246.00;5065023;28;20388;-83
2024/01/12 07:48:51;;;;;;;36.00;20.30;;;;;;;0.42;100.00;103244.53;5061645;28;20036;-74
2024/01/12 07:51:17;;;;;;;38.00;20.02;;;;;;;0.44;100.00;103242.09;5064000;28;20040;-75
2024/01/12 07:53:43;;;;;;;37.38;19.40;;;;;;;0.50;100.00;103237.38;5062279;28;20036;-74
2024/01/12 07:56:09;;;;;;;38.75;19.75;;;;;;;0.50;100.00;103238.28;5062962;28;20472;-75
2024/01/12 07:58:35;;;;;;;35.33;20.40;;;;;;;0.47;100.00;103239.75;5063222;28;20534;-74
2024/01/12 08:01:00;;;;;;;37.90;21.17;;;;;;;0.47;100.00;103224.13;5061658;28;20027;-74
2024/01/12 08:03:26;;;;;;;36.17;20.00;;;;;;;0.54;100.00;103229.06;5055123;28;20124;-75
2024/01/12 08:05:51;;;;;;;38.22;20.55;;;;;;;0.59;100.00;103221.63;5047284;28;20032;-74
2024/01/12 08:08:17;;;;;;;36.25;20.67;;;;;;;0.62;100.00;103233.19;5065449;28;20037;-74
2024/01/12 08:10:43;;;;;;;43.92;21.27;;;;;;;0.65;100.00;103237.75;5052576;28;20087;-75
2024/01/12 08:13:08;;;;;;;37.28;21.38;;;;;;;0.69;100.00;103240.72;5062550;28;20025;-75
2024/01/12 08:15:33;;;;;;;37.50;21.02;;;;;;;0.68;100.00;103240.59;5065124;28;20081;-81
2024/01/12 08:17:59;;;;;;;37.63;20.50;;;;;;;0.69;100.00;103237.22;5061378;28;20052;-77
2024/01/12 08:20:24;;;;;;;38.47;21.10;;;;;;;0.71;100.00;103240.84;5046425;28;20028;-74
2024/01/12 08:22:49;;;;;;;36.70;19.88;;;;;;;0.78;100.00;103239.69;5061151;28;20032;-74
2024/01/12 08:25:15;;;;;;;37.55;20.30;;;;;;;0.80;100.00;103245.91;5060761;28;20031;-84
2024/01/12 08:27:40;;;;;;;35.88;19.60;;;;;;;0.79;100.00;103239.81;5062624;28;20053;-84
2024/01/12 08:30:07;;;;;;;36.03;20.10;;;;;;;0.84;100.00;103242.78;5055064;28;20029;-84
2024/01/12 08:32:33;;;;;;;39.13;23.30;;;;;;;0.82;100.00;103244.38;5063529;28;20033;-75
2024/01/12 08:34:58;;;;;;;36.45;22.20;;;;;;;0.87;100.00;103250.84;5060936;28;20051;-75
2024/01/12 08:37:24;;;;;;;35.30;21.00;;;;;;;0.92;100.00;103246.00;5064216;28;20053;-78
2024/01/12 08:39:49;;;;;;;39.50;20.67;;;;;;;0.96;100.00;103249.00;5061062;28;20028;-81
2024/01/12 08:42:14;;;;;;;39.03;21.05;;;;;;;0.97;100.00;103256.03;5063356;28;20484;-75
2024/01/12 08:44:40;;;;;;;36.92;20.10;;;;;;;1.03;100.00;103255.63;5062057;28;20032;-75
2024/01/12 08:47:05;;;;;;;34.78;19.83;;;;;;;1.01;100.00;103255.50;5061692;28;20056;-75
2024/01/12 08:49:31;;;;;;;37.15;20.15;;;;;;;1.04;100.00;103265.25;5063535;28;20068;-75
2024/01/12 08:51:56;;;;;;;37.08;21.05;;;;;;;1.07;100.00;103259.41;5060566;28;20068;-76
2024/01/12 08:54:21;;;;;;;34.78;19.70;;;;;;;1.10;100.00;103254.44;5052339;28;20491;-76
2024/01/12 08:56:47;;;;;;;36.58;18.98;;;;;;;1.09;100.00;103250.00;5060587;28;20032;-75
2024/01/12 08:59:13;;;;;;;37.40;19.60;;;;;;;1.06;100.00;103244.53;5065203;28;20067;-75
2024/01/12 09:01:38;;;;;;;35.30;19.30;;;;;;;1.13;100.00;103244.25;5066164;28;20032;-75
2024/01/12 09:04:04;;;;;;;34.63;18.90;;;;;;;1.14;100.00;103248.69;5065967;28;20163;-83
2024/01/12 09:06:29;;;;;;;33.50;18.45;;;;;;;1.21;100.00;103251.91;5067723;28;20044;-80
2024/01/12 09:08:55;;;;;;;34.83;19.33;;;;;;;1.29;100.00;103254.22;5064643;28;20481;-79
2024/01/12 09:11:21;;;;;;;35.50;18.30;;;;;;;1.28;100.00;103258.53;5067655;28;20036;-83
2024/01/12 09:13:47;;;;;;;35.30;19.13;;;;;;;1.31;100.00;103256.19;5065314;28;20033;-78
2024/01/12 09:16:13;;;;;;;32.20;18.10;;;;;;;1.34;100.00;103247.66;5066062;28;20025;-75
2024/01/12 09:18:38;;;;;;;33.53;18.15;;;;;;;1.35;100.00;103255.59;5050381;28;20066;-77
2024/01/12 09:21:04;;;;;;;33.55;17.30;;;;;;;1.36;100.00;103252.22;5066867;28;20025;-85
2024/01/12 09:23:30;;;;;;;33.85;17.83;;;;;;;1.37;100.00;103254.06;5064845;28;20041;-85
2024/01/12 09:25:56;;;;;;;36.55;18.23;;;;;;;1.36;100.00;103252.22;5064754;28;20099;-83
2024/01/12 09:28:21;;;;;;;34.10;18.40;;;;;;;1.39;100.00;103251.56;5049830;28;20044;-84
2024/01/12 09:30:47;;;;;;;36.28;18.15;;;;;;;1.39;100.00;103252.47;5058193;28;20379;-85
2024/01/12 09:33:14;;;;;;;33.70;17.27;;;;;;;1.43;100.00;103239.66;5049970;28;20120;-84
2024/01/12 09:35:39;;;;;;;36.47;17.42;;;;;;;1.49;100.00;103242.78;5067699;28;20021;-84
2024/01/12 09:38:05;;;;;;;36.05;18.10;;;;;;;1.50;100.00;103248.13;5066325;28;20092;-84
2024/01/12 09:40:31;;;;;;;34.67;17.48;;;;;;;1.52;100.00;103256.06;5053000;28;20037;-84
2024/01/12 09:42:59;;;;;;;35.20;19.00;;;;;;;1.53;100.00;103250.97;5067106;28;20472;-76
2024/01/12 09:45:25;;;;;;;36.53;18.75;;;;;;;1.53;100.00;103261.41;5063886;28;20104;-80
2024/01/12 09:47:51;;;;;;;37.10;19.65;;;;;;;1.50;100.00;103255.94;5067721;28;20455;-82
2024/01/12 09:50:21;;;;;;;34.47;18.67;;;;;;;1.49;100.00;103248.00;5066779;28;20032;-83
2024/01/12 09:52:46;;;;;;;33.72;19.17;;;;;;;1.51;100.00;103249.03;5063993;28;20504;-84
2024/01/12 09:55:12;;;;;;;34.58;18.92;;;;;;;1.49;100.00;103240.19;5066037;28;20052;-85
2024/01/12 09:57:38;;;;;;;35.25;19.15;;;;;;;1.53;100.00;103239.63;5047441;28;20020;-85
2024/01/12 10:00:06;;;;;;;35.58;19.30;;;;;;;1.56;100.00;103242.50;5064969;28;20087;-82
2024/01/12 10:02:31;;;;;;;36.20;18.45;;;;;;;1.59;100.00;103236.59;5065906;28;20086;-81
2024/01/12 10:04:57;;;;;;;34.38;18.35;;;;;;;1.66;100.00;103237.22;5050587;28;20482;-79
2024/01/12 10:07:22;;;;;;;32.38;17.85;;;;;;;1.76;100.00;103241.44;5066840;28;20206;-76
2024/01/12 10:09:47;;;;;;;32.17;17.20;;;;;;;1.82;100.00;103235.78;5063368;28;20389;-75
2024/01/12 10:12:13;;;;;;;31.48;16.77;;;;;;;1.87;100.00;103234.47;5065678;28;20040;-75
2024/01/12 10:14:38;;;;;;;31.40;15.57;;;;;;;1.89;100.00;103235.47;5064870;28;20064;-77
2024/01/12 10:17:04;;;;;;;35.65;16.85;;;;;;;1.90;100.00;103243.44;5046264;28;20499;-79
2024/01/12 10:19:29;;;;;;;34.90;16.10;;;;;;;1.94;100.00;103239.38;5065824;28;20387;-75
2024/01/12 10:21:54;;;;;;;31.50;16.20;;;;;;;1.93;100.00;103234.94;5050314;28;20072;-75
2024/01/12 10:24:21;;;;;;;31.55;16.25;;;;;;;1.99;100.00;103248.44;5062877;28;20036;-75
2024/01/12 10:26:47;;;;;;;32.55;16.10;;;;;;;2.01;100.00;103251.19;5065699;28;20036;-75
2024/01/12 10:29:16;;;;;;;31.10;15.82;;;;;;;2.04;100.00;103247.13;5064028;28;20112;-75
2024/01/12 10:31:43;;;;;;;32.15;15.50;;;;;;;2.05;100.00;103245.41;5064838;28;20082;-75
2024/01/12 10:34:11;;;;;;;31.17;15.30;;;;;;;2.09;100.00;103240.53;5064124;28;20126;-75
2024/01/12 10:36:40;;;;;;;30.63;15.48;;;;;;;2.11;100.00;103244.97;5064086;28;20053;-75
2024/01/12 10:39:10;;;;;;;32.53;15.40;;;;;;;2.08;100.00;103230.91;5064307;28;20052;-75
2024/01/12 10:41:36;;;;;;;31.77;15.93;;;;;;;2.07;100.00;103226.47;5064046;28;20391;-75
2024/01/12 10:44:05;;;;;;;30.88;14.93;;;;;;;2.07;100.00;103223.88;5047324;28;20025;-76
2024/01/12 10:46:44;;;;;;;31.92;15.45;;;;;;;2.14;100.00;103216.50;5062944;28;20025;-75
2024/01/12 10:49:28;;;;;;;31.23;15.52;;;;;;;2.22;100.00;103221.53;5063849;28;20035;-75
2024/01/12 10:52:11;;;;;;;30.95;15.25;;;;;;;2.19;100.00;103220.41;5054071;28;20384;-75
2024/01/12 10:54:52;;;;;;;31.45;15.43;;;;;;;2.18;100.00;103218.56;5065663;28;20040;-75
2024/01/12 10:57:18;;;;;;;33.53;15.13;;;;;;;2.11;100.00;103217.19;5062649;28;20507;-75
2024/01/12 10:59:44;;;;;;;30.90;15.32;;;;;;;2.10;100.00;103215.38;5064816;28;20033;-76
2024/01/12 11:02:13;;;;;;;30.40;15.32;;;;;;;2.16;100.00;103226.28;5063884;28;20123;-76